Time;durP1;ratioP1;P1;durP2;ratioP2;P2;SDS_P1;SDS_P2;PMS_P1;PMS_P2;Temp;Humidity;BMP_temperature;BMP_pressure;BME280_temperature;BME280_humidity;BME280_pressure;Samples;Min_cycle;Max_cycle;Signal;HPM_P1;HPM_P2
2021/01/30 00:01:14;;;;;;;;;;;;;;;-8.45;78.12;98726.41;1736127;81;20479;-77
2021/01/30 00:03:41;;;;;;;;;;;;;;;-8.46;78.16;98724.73;1760212;80;20252;-77
2021/01/30 00:06:09;;;;;;;;;;;;;;;-8.44;78.19;98727.23;1749575;79;21734;-77
2021/01/30 00:08:36;;;;;;;;;;;;;;;-8.41;78.19;98728.42;1754781;81;20215;-77
2021/01/30 00:11:03;;;;;;;;;;;;;;;-8.44;78.09;98724.67;1755747;79;21055;-78
2021/01/30 00:13:30;;;;;;;;;;;;;;;-8.48;78.03;98726.94;1760647;79;20596;-77
2021/01/30 00:15:58;;;;;;;;;;;;;;;-8.47;78.00;98725.61;1762646;79;20285;-77
2021/01/30 00:18:25;;;;;;;;;;;;;;;-8.48;77.93;98721.37;1761844;80;22508;-77
2021/01/30 00:20:52;;;;;;;;;;;;;;;-8.53;77.78;98720.66;1764836;80;20519;-78
2021/01/30 00:23:19;;;;;;;;;;;;;;;-8.58;77.72;98721.69;1758047;79;20220;-77
2021/01/30 00:25:46;;;;;;;;;;;;;;;-8.59;77.70;98722.10;1762878;79;20314;-76
2021/01/30 00:28:13;;;;;;;;;;;;;;;-8.61;77.66;98717.48;1763469;81;20208;-76
2021/01/30 00:30:42;;;;;;;;;;;;;;;-8.64;77.67;98720.58;1760574;80;21784;-75
2021/01/30 00:33:09;;;;;;;;;;;;;;;-8.68;77.62;98724.52;1759322;80;20373;-75
2021/01/30 00:35:37;;;;;;;;;;;;;;;-8.71;77.58;98727.58;1761266;79;20291;-77
2021/01/30 00:38:05;;;;;;;;;;;;;;;-8.73;77.58;98728.07;1761893;79;20975;-77
2021/01/30 00:40:32;;;;;;;;;;;;;;;-8.74;77.61;98725.11;1758178;79;20267;-76
2021/01/30 00:43:01;;;;;;;;;;;;;;;-8.74;77.61;98730.23;1757955;80;21901;-76
2021/01/30 00:45:31;;;;;;;;;;;;;;;-8.74;77.56;98735.35;1759678;80;21407;-76
2021/01/30 00:47:58;;;;;;;;;;;;;;;-8.78;77.54;98733.33;1739852;79;20224;-77
2021/01/30 00:50:26;;;;;;;;;;;;;;;-8.75;77.56;98734.95;1757535;80;20520;-77
2021/01/30 00:52:55;;;;;;;;;;;;;;;-8.75;77.53;98734.52;1761942;79;20391;-77
2021/01/30 00:55:24;;;;;;;;;;;;;;;-8.79;77.37;98746.97;1763283;80;21904;-76
2021/01/30 00:57:53;;;;;;;;;;;;;;;-8.90;77.15;98749.44;1754830;79;20907;-75
2021/01/30 01:00:25;;;;;;;;;;;;;;;-9.03;77.00;98748.94;1751033;80;20209;-76
2021/01/30 01:02:55;;;;;;;;;;;;;;;-9.13;76.91;98748.78;1749564;80;20313;-75
2021/01/30 01:05:26;;;;;;;;;;;;;;;-9.21;76.89;98747.69;1735842;81;20216;-76
2021/01/30 01:07:53;;;;;;;;;;;;;;;-9.27;77.01;98749.11;1731891;82;22771;-76
2021/01/30 01:10:22;;;;;;;;;;;;;;;-9.24;77.14;98748.61;1730783;81;20774;-76
2021/01/30 01:12:49;;;;;;;;;;;;;;;-9.19;77.22;98745.92;1757759;80;20240;-77
2021/01/30 01:15:18;;;;;;;;;;;;;;;-9.15;77.32;98732.64;1756801;80;21781;-76
2021/01/30 01:17:45;;;;;;;;;;;;;;;-9.11;77.39;98747.84;1753176;81;20486;-77
2021/01/30 01:20:15;;;;;;;;;;;;;;;-9.15;77.30;98747.55;1756795;81;21953;-76
2021/01/30 01:22:42;;;;;;;;;;;;;;;-9.18;77.23;98745.48;1757795;80;20974;-77
2021/01/30 01:25:09;;;;;;;;;;;;;;;-9.24;77.21;98741.39;1757656;80;20222;-77
2021/01/30 01:27:37;;;;;;;;;;;;;;;-9.24;77.22;98747.78;1757848;80;20483;-78
2021/01/30 01:30:09;;;;;;;;;;;;;;;-9.22;77.24;98752.84;1756648;80;20272;-78
2021/01/30 01:32:36;;;;;;;;;;;;;;;-9.22;77.27;98751.13;1730073;81;22160;-78
2021/01/30 01:35:05;;;;;;;;;;;;;;;-9.24;77.24;98753.73;1754896;80;20362;-79
2021/01/30 01:37:33;;;;;;;;;;;;;;;-9.28;77.18;98749.55;1758091;81;20252;-75
2021/01/30 01:40:00;;;;;;;;;;;;;;;-9.31;77.24;98751.36;1753096;80;21360;-75
2021/01/30 01:42:27;;;;;;;;;;;;;;;-9.33;77.16;98753.96;1757067;80;20216;-74
2021/01/30 01:44:55;;;;;;;;;;;;;;;-9.43;77.03;98752.95;1755762;81;21961;-75
2021/01/30 01:47:30;;;;;;;;;;;;;;;-9.58;76.95;98749.88;1771054;80;20369;-75
2021/01/30 01:50:03;;;;;;;;;;;;;;;-9.65;76.97;98765.39;1753153;80;20327;-74
2021/01/30 01:52:35;;;;;;;;;;;;;;;-9.78;76.79;98753.80;1756898;81;20479;-74
2021/01/30 01:55:11;;;;;;;;;;;;;;;-9.94;76.76;98755.85;1759688;80;20232;-74
2021/01/30 01:57:41;;;;;;;;;;;;;;;-9.99;76.80;98762.36;1761545;81;22754;-75
2021/01/30 02:00:09;;;;;;;;;;;;;;;-10.04;76.78;98766.70;1767524;80;20423;-75
2021/01/30 02:02:37;;;;;;;;;;;;;;;-10.07;76.89;98765.95;1767775;79;20216;-75
2021/01/30 02:05:11;;;;;;;;;;;;;;;-10.04;76.95;98759.48;1767101;79;20909;-74
2021/01/30 02:07:39;;;;;;;;;;;;;;;-10.00;77.18;98756.01;1764226;81;20184;-74
2021/01/30 02:10:09;;;;;;;;;;;;;;;-9.90;77.40;98766.42;1762189;80;22997;-74
2021/01/30 02:12:39;;;;;;;;;;;;;;;-9.81;77.55;98761.09;1743305;81;20258;-75
2021/01/30 02:15:08;;;;;;;;;;;;;;;-9.78;77.63;98762.73;1758009;81;20216;-74
2021/01/30 02:17:43;;;;;;;;;;;;;;;-9.74;77.72;98756.70;1767908;80;21347;-74
2021/01/30 02:20:46;;;;;;;;;;;;;;;-9.72;77.84;98754.94;1758727;81;20214;-75
2021/01/30 02:23:32;;;;;;;;;;;;;;;-9.68;77.88;98760.36;1760987;79;21972;-74
2021/01/30 02:26:30;;;;;;;;;;;;;;;-9.72;77.77;98758.77;1765630;80;20358;-73
2021/01/30 02:29:14;;;;;;;;;;;;;;;-9.80;77.67;98760.22;1740789;81;20216;-73
2021/01/30 02:31:45;;;;;;;;;;;;;;;-9.81;77.74;98759.38;1749664;79;21409;-74
2021/01/30 02:34:25;;;;;;;;;;;;;;;-9.79;77.80;98767.00;1762922;81;20216;-74
2021/01/30 02:37:08;;;;;;;;;;;;;;;-9.83;77.71;98765.41;1754940;79;22736;-74
2021/01/30 02:39:41;;;;;;;;;;;;;;;-9.88;77.66;98774.87;1764493;80;20335;-73
2021/01/30 02:42:15;;;;;;;;;;;;;;;-9.91;77.62;98765.58;1749533;79;20402;-74
2021/01/30 02:45:12;;;;;;;;;;;;;;;-9.94;77.65;98770.77;1758788;81;20221;-75
2021/01/30 02:47:43;;;;;;;;;;;;;;;-9.95;77.65;98763.11;1759509;79;20243;-70
2021/01/30 02:50:16;;;;;;;;;;;;;;;-9.94;77.80;98755.45;1766385;79;22066;-70
2021/01/30 02:52:45;;;;;;;;;;;;;;;-9.89;77.89;98760.43;1769065;81;20219;-70
2021/01/30 02:55:14;;;;;;;;;;;;;;;-9.86;77.95;98753.53;1758690;79;20219;-70
2021/01/30 02:57:42;;;;;;;;;;;;;;;-9.89;78.00;98751.05;1755087;79;20473;-71
2021/01/30 03:00:11;;;;;;;;;;;;;;;-9.90;78.07;98753.20;1742170;81;20512;-72
2021/01/30 03:02:38;;;;;;;;;;;;;;;-9.88;78.10;98751.89;1734529;82;21221;-73
2021/01/30 03:05:08;;;;;;;;;;;;;;;-9.88;78.10;98752.73;1729585;82;20229;-72
2021/01/30 03:08:00;;;;;;;;;;;;;;;-9.91;78.13;98755.36;1739165;81;20306;-72
2021/01/30 03:10:47;;;;;;;;;;;;;;;-9.94;78.16;98747.78;1734324;81;20475;-72
2021/01/30 03:13:18;;;;;;;;;;;;;;;-9.97;78.24;98744.00;1654966;85;20249;-72
2021/01/30 03:16:14;;;;;;;;;;;;;;;-9.93;78.30;98746.06;1855791;75;20217;-73
2021/01/30 03:18:57;;;;;;;;;;;;;;;-10.00;78.30;98738.13;1834310;77;20992;-71
2021/01/30 03:21:24;;;;;;;;;;;;;;;-10.02;78.35;98738.17;1819671;77;21791;-72
2021/01/30 03:23:52;;;;;;;;;;;;;;;-10.04;78.41;98734.79;1823388;77;20205;-72
2021/01/30 03:26:21;;;;;;;;;;;;;;;-10.02;78.39;98739.89;1835665;78;20229;-73
2021/01/30 03:28:48;;;;;;;;;;;;;;;-10.04;78.42;98733.52;1820184;77;20871;-72
2021/01/30 03:31:17;;;;;;;;;;;;;;;-10.06;78.45;98725.49;1818727;77;20238;-72
2021/01/30 03:33:44;;;;;;;;;;;;;;;-10.06;78.47;98726.33;1805875;78;21880;-71
2021/01/30 03:36:12;;;;;;;;;;;;;;;-10.03;78.50;98720.34;1831174;77;20219;-73
2021/01/30 03:38:39;;;;;;;;;;;;;;;-10.02;78.50;98723.30;1840627;77;20222;-72
2021/01/30 03:41:06;;;;;;;;;;;;;;;-10.02;78.51;98716.47;1819728;77;20231;-72
2021/01/30 03:43:33;;;;;;;;;;;;;;;-10.06;78.53;98713.56;1818412;77;20269;-72
2021/01/30 03:46:01;;;;;;;;;;;;;;;-10.08;78.58;98714.05;1825233;77;24265;-72
2021/01/30 03:48:29;;;;;;;;;;;;;;;-10.10;78.67;98710.70;1823126;77;20226;-72
2021/01/30 03:50:57;;;;;;;;;;;;;;;-10.08;78.73;98714.05;1835456;77;20249;-72
2021/01/30 03:53:24;;;;;;;;;;;;;;;-10.05;78.76;98711.85;1823575;77;21087;-73
2021/01/30 03:55:52;;;;;;;;;;;;;;;-10.03;78.81;98713.95;1838119;78;20769;-73
2021/01/30 03:58:19;;;;;;;;;;;;;;;-10.00;78.79;98710.05;1831808;77;21147;-73
2021/01/30 04:00:46;;;;;;;;;;;;;;;-9.97;78.80;98712.52;1832819;77;20304;-73
2021/01/30 04:03:14;;;;;;;;;;;;;;;-9.99;78.85;98708.73;1830877;77;20210;-71
2021/01/30 04:05:43;;;;;;;;;;;;;;;-9.95;78.90;98709.48;1830261;77;20214;-71
2021/01/30 04:08:11;;;;;;;;;;;;;;;-9.95;78.81;98709.05;1800393;78;20516;-71
2021/01/30 04:10:38;;;;;;;;;;;;;;;-9.95;78.73;98710.32;1806443;78;21878;-72
2021/01/30 04:13:08;;;;;;;;;;;;;;;-9.98;78.71;98702.73;1815160;77;20223;-72
2021/01/30 04:15:38;;;;;;;;;;;;;;;-9.98;78.67;98707.84;1830570;78;20282;-73
2021/01/30 04:18:06;;;;;;;;;;;;;;;-9.98;78.69;98704.02;1821020;77;20210;-73
2021/01/30 04:20:33;;;;;;;;;;;;;;;-10.01;78.68;98714.31;1835274;77;20284;-74
2021/01/30 04:23:03;;;;;;;;;;;;;;;-10.02;78.74;98716.91;1825868;77;21339;-73
2021/01/30 04:25:30;;;;;;;;;;;;;;;-10.02;78.76;98716.47;1837480;78;21210;-73
2021/01/30 04:27:58;;;;;;;;;;;;;;;-10.01;78.77;98711.77;1831210;77;20253;-73
2021/01/30 04:30:27;;;;;;;;;;;;;;;-9.99;78.78;98722.77;1828766;77;20294;-73
2021/01/30 04:32:56;;;;;;;;;;;;;;;-10.01;78.65;98721.97;1824201;77;20222;-72
2021/01/30 04:35:25;;;;;;;;;;;;;;;-10.08;78.55;98720.87;1825671;77;21932;-73
2021/01/30 04:37:52;;;;;;;;;;;;;;;-10.11;78.51;98720.51;1768229;79;20518;-72
2021/01/30 04:40:32;;;;;;;;;;;;;;;-10.14;78.54;98718.84;1779109;80;20415;-74
2021/01/30 04:43:07;;;;;;;;;;;;;;;-10.14;78.60;98716.28;1742170;81;20227;-72
2021/01/30 04:45:50;;;;;;;;;;;;;;;-10.17;78.68;98713.81;1771594;80;20237;-71
2021/01/30 04:48:39;;;;;;;;;;;;;;;-10.15;78.80;98713.77;1777847;79;22112;-71
2021/01/30 04:51:13;;;;;;;;;;;;;;;-10.12;78.90;98710.73;1766100;79;20346;-71
2021/01/30 04:54:18;;;;;;;;;;;;;;;-10.10;78.96;98714.09;1764576;79;20301;-71
2021/01/30 04:56:58;;;;;;;;;;;;;;;-10.05;78.95;98719.52;1775986;80;20227;-71
2021/01/30 04:59:32;;;;;;;;;;;;;;;-10.07;78.86;98713.16;1779333;80;20238;-72
2021/01/30 05:02:20;;;;;;;;;;;;;;;-10.13;78.91;98703.11;1762491;80;22122;-73
2021/01/30 05:04:49;;;;;;;;;;;;;;;-10.11;79.03;98702.20;1779281;80;20416;-72
2021/01/30 05:07:45;;;;;;;;;;;;;;;-10.08;79.07;98693.62;1749311;80;20255;-72
2021/01/30 05:10:35;;;;;;;;;;;;;;;-10.05;79.12;98690.98;1778380;80;20237;-72
2021/01/30 05:13:12;;;;;;;;;;;;;;;-10.01;79.18;98696.88;1759018;80;20234;-72
2021/01/30 05:15:51;;;;;;;;;;;;;;;-10.03;79.05;98712.24;1740265;81;21902;-72
2021/01/30 05:18:22;;;;;;;;;;;;;;;-10.10;79.00;98720.91;1772329;79;21235;-72
2021/01/30 05:20:56;;;;;;;;;;;;;;;-10.11;79.06;98733.27;1754306;81;20414;-73
2021/01/30 05:23:23;;;;;;;;;;;;;;;-10.09;79.04;98737.91;1751525;80;20250;-72
2021/01/30 05:25:54;;;;;;;;;;;;;;;-10.07;79.06;98735.31;1739818;80;20210;-72
2021/01/30 05:28:28;;;;;;;;;;;;;;;-10.06;79.15;98735.27;1780316;80;23059;-73
2021/01/30 05:30:59;;;;;;;;;;;;;;;-10.02;79.20;98738.17;1778034;80;20357;-72
2021/01/30 05:33:36;;;;;;;;;;;;;;;-10.00;79.20;98743.24;1769551;80;21092;-71
2021/01/30 05:36:15;;;;;;;;;;;;;;;-10.01;79.21;98751.34;1777478;80;20243;-71
2021/01/30 05:39:10;;;;;;;;;;;;;;;-9.99;79.21;98774.28;1770384;80;20224;-72
2021/01/30 05:41:57;;;;;;;;;;;;;;;-9.98;79.25;98783.63;1782554;80;22101;-73
2021/01/30 05:44:31;;;;;;;;;;;;;;;-10.00;79.23;98776.00;1769892;80;20261;-72
2021/01/30 05:46:59;;;;;;;;;;;;;;;-9.99;79.32;98778.11;1762232;80;20598;-69
2021/01/30 05:49:29;;;;;;;;;;;;;;;-9.98;79.34;98776.80;1771510;80;20262;-69
2021/01/30 05:52:06;;;;;;;;;;;;;;;-9.95;79.35;98772.05;1774822;79;20288;-73
2021/01/30 05:54:33;;;;;;;;;;;;;;;-9.94;79.40;98773.32;1780455;80;22073;-74
2021/01/30 05:57:03;;;;;;;;;;;;;;;-9.91;79.43;98777.08;1767493;80;20346;-70
2021/01/30 05:59:31;;;;;;;;;;;;;;;-9.87;79.48;98771.01;1751889;80;20216;-73
2021/01/30 06:02:11;;;;;;;;;;;;;;;-9.82;79.48;98767.92;1772555;80;20230;-73
2021/01/30 06:04:39;;;;;;;;;;;;;;;-9.80;79.50;98771.72;1774426;80;20210;-72
2021/01/30 06:07:11;;;;;;;;;;;;;;;-9.75;79.53;98770.31;1767841;79;22066;-72
2021/01/30 06:09:41;;;;;;;;;;;;;;;-9.69;79.57;98771.46;1744567;80;20431;-71
2021/01/30 06:12:22;;;;;;;;;;;;;;;-9.64;79.60;98760.71;1770781;79;20216;-73
2021/01/30 06:14:51;;;;;;;;;;;;;;;-9.59;79.61;98766.09;1779483;79;20329;-71
2021/01/30 06:17:28;;;;;;;;;;;;;;;-9.53;79.62;98763.41;1775646;79;20819;-71
2021/01/30 06:20:03;;;;;;;;;;;;;;;-9.48;79.67;98757.33;1763977;79;22325;-74
2021/01/30 06:22:30;;;;;;;;;;;;;;;-9.40;79.67;98757.98;1767228;80;20344;-74
2021/01/30 06:24:58;;;;;;;;;;;;;;;-9.37;79.64;98745.11;1773856;80;20422;-73
2021/01/30 06:27:30;;;;;;;;;;;;;;;-9.33;79.64;98742.90;1772017;79;20217;-71
2021/01/30 06:30:00;;;;;;;;;;;;;;;-9.26;79.71;98740.59;1774895;79;20264;-74
2021/01/30 06:32:40;;;;;;;;;;;;;;;-9.18;79.74;98741.65;1783888;80;22640;-77
2021/01/30 06:35:23;;;;;;;;;;;;;;;-9.11;79.73;98740.62;1756885;81;20290;-73
2021/01/30 06:38:02;;;;;;;;;;;;;;;-9.07;79.71;98732.84;1765494;81;20215;-77
2021/01/30 06:40:53;;;;;;;;;;;;;;;-9.01;79.75;98735.66;1774654;81;20222;-75
2021/01/30 06:43:41;;;;;;;;;;;;;;;-8.95;79.80;98736.78;1760878;80;20383;-77
2021/01/30 06:46:13;;;;;;;;;;;;;;;-8.88;79.82;98724.64;1762738;81;22088;-78
2021/01/30 06:48:46;;;;;;;;;;;;;;;-8.80;79.83;98726.55;1760262;80;20318;-76
2021/01/30 06:51:35;;;;;;;;;;;;;;;-8.74;79.80;98718.27;1740322;81;20406;-78
2021/01/30 06:54:23;;;;;;;;;;;;;;;-8.68;79.81;98710.44;1737650;81;20232;-73
2021/01/30 06:57:00;;;;;;;;;;;;;;;-8.62;79.85;98690.66;1762176;80;20504;-76
2021/01/30 06:59:30;;;;;;;;;;;;;;;-8.51;79.94;98693.73;1773629;79;21873;-73
2021/01/30 07:01:58;;;;;;;;;;;;;;;-8.42;79.97;98689.17;1758143;80;21267;-74
2021/01/30 07:04:36;;;;;;;;;;;;;;;-8.31;80.03;98688.82;1782219;80;20203;-76
2021/01/30 07:07:20;;;;;;;;;;;;;;;-8.18;80.12;98696.55;1774398;80;20508;-75
2021/01/30 07:10:11;;;;;;;;;;;;;;;-8.07;80.21;98689.36;1774288;80;20223;-73
2021/01/30 07:12:54;;;;;;;;;;;;;;;-7.91;80.30;98696.14;1756808;80;21915;-74
2021/01/30 07:15:33;;;;;;;;;;;;;;;-7.75;80.39;98695.63;1765512;80;20384;-73
2021/01/30 07:18:14;;;;;;;;;;;;;;;-7.62;80.41;98695.20;1773675;80;20227;-76
2021/01/30 07:21:03;;;;;;;;;;;;;;;-7.50;80.43;98697.80;1784236;80;20235;-73
2021/01/30 07:23:41;;;;;;;;;;;;;;;-7.37;80.47;98689.23;1775491;80;20221;-72
2021/01/30 07:26:30;;;;;;;;;;;;;;;-7.24;80.52;98684.06;1772643;80;22086;-73
2021/01/30 07:29:08;;;;;;;;;;;;;;;-7.10;80.63;98685.72;1770756;80;20477;-75
2021/01/30 07:31:45;;;;;;;;;;;;;;;-6.91;80.76;98680.78;1754205;80;20316;-73
2021/01/30 07:34:19;;;;;;;;;;;;;;;-6.76;80.77;98676.80;1762186;80;21363;-76
2021/01/30 07:36:56;;;;;;;;;;;;;;;-6.60;80.80;98679.20;1775232;80;20280;-76
2021/01/30 07:39:45;;;;;;;;;;;;;;;-6.45;80.82;98676.53;1774721;80;22960;-77
2021/01/30 07:42:36;;;;;;;;;;;;;;;-6.30;80.85;98676.38;1777069;80;20238;-78
2021/01/30 07:45:07;;;;;;;;;;;;;;;-6.14;80.86;98686.46;1780137;80;20225;-81
2021/01/30 07:47:47;;;;;;;;;;;;;;;-5.99;80.84;98696.58;1762753;80;21182;-78
2021/01/30 07:50:27;;;;;;;;;;;;;;;-5.88;80.84;98696.53;1777320;80;20377;-78
2021/01/30 07:53:12;;;;;;;;;;;;;;;-5.77;80.76;98693.08;1768805;80;21361;-75
2021/01/30 07:56:01;;;;;;;;;;;;;;;-5.64;80.77;98699.01;1770618;80;20376;-78
2021/01/30 07:58:41;;;;;;;;;;;;;;;-5.53;80.65;98696.83;1775174;79;20282;-81
2021/01/30 08:01:31;;;;;;;;;;;;;;;-5.39;80.45;98694.99;1783545;80;20300;-75
2021/01/30 08:04:27;;;;;;;;;;;;;;;-5.28;80.34;98691.06;1752688;80;20794;-75
2021/01/30 08:07:27;;;;;;;;;;;;;;;-5.14;80.24;98700.77;1745152;80;22046;-76
2021/01/30 08:10:20;;;;;;;;;;;;;;;-5.03;80.12;98690.84;1747465;80;20413;-78
2021/01/30 08:12:57;;;;;;;;;;;;;;;-4.90;80.10;98693.28;1745939;80;20270;-80
2021/01/30 08:15:30;;;;;;;;;;;;;;;-4.77;80.08;98696.15;1745697;80;20486;-82
2021/01/30 08:18:16;;;;;;;;;;;;;;;-4.67;79.98;98696.13;1771635;80;20219;-76
2021/01/30 08:20:57;;;;;;;;;;;;;;;-4.57;79.91;98687.53;1770664;80;22069;-74
2021/01/30 08:23:40;;;;;;;;;;;;;;;-4.50;79.71;98693.25;1771011;80;20408;-74
2021/01/30 08:26:31;;;;;;;;;;;;;;;-4.46;79.46;98696.90;1751108;80;20293;-74
2021/01/30 08:29:20;;;;;;;;;;;;;;;-4.38;79.43;98679.35;1748836;81;20315;-74
2021/01/30 08:31:50;;;;;;;;;;;;;;;-4.30;79.34;98687.19;1745504;81;20706;-75
2021/01/30 08:34:21;;;;;;;;;;;;;;;-4.25;79.15;98693.79;1767220;80;22064;-78
2021/01/30 08:36:53;;;;;;;;;;;;;;;-4.19;79.03;98697.84;1771823;80;20262;-76
2021/01/30 08:39:27;;;;;;;;;;;;;;;-4.17;78.92;98694.27;1769004;80;20226;-74
2021/01/30 08:41:58;;;;;;;;;;;;;;;-4.16;78.59;98692.53;1771196;80;20464;-77
2021/01/30 08:44:32;;;;;;;;;;;;;;;-4.17;78.49;98702.01;1769943;80;20830;-77
2021/01/30 08:47:22;;;;;;;;;;;;;;;-4.12;78.29;98697.95;1815175;76;20199;-78
2021/01/30 08:50:01;;;;;;;;;;;;;;;-4.17;78.22;98703.75;1800650;79;20246;-78
2021/01/30 08:52:41;;;;;;;;;;;;;;;-4.14;78.30;98704.92;1798459;78;21886;-79
2021/01/30 08:55:33;;;;;;;;;;;;;;;-4.12;78.29;98696.20;1791840;79;20263;-78
2021/01/30 08:58:01;;;;;;;;;;;;;;;-4.07;78.40;98695.52;1806677;79;20277;-82
2021/01/30 09:00:37;;;;;;;;;;;;;;;-4.01;78.44;98697.44;1794868;79;20234;-80
2021/01/30 09:03:06;;;;;;;;;;;;;;;-3.98;78.51;98692.13;1812599;77;20414;-82
2021/01/30 09:05:37;;;;;;;;;;;;;;;-3.98;78.53;98689.09;1806714;77;21875;-79
2021/01/30 09:08:17;;;;;;;;;;;;;;;-3.99;78.65;98683.56;1787406;79;20225;-80
2021/01/30 09:10:44;;;;;;;;;;;;;;;-3.96;78.83;98683.86;1810310;79;20291;-78
2021/01/30 09:13:16;;;;;;;;;;;;;;;-3.94;79.00;98679.03;1779804;79;20285;-75
2021/01/30 09:15:48;;;;;;;;;;;;;;;-3.92;79.15;98682.83;1791756;79;20472;-74
2021/01/30 09:18:35;;;;;;;;;;;;;;;-3.93;79.43;98673.42;1809501;77;21882;-72
2021/01/30 09:21:11;;;;;;;;;;;;;;;-3.92;79.58;98672.51;1807833;77;20387;-73
2021/01/30 09:23:42;;;;;;;;;;;;;;;-3.89;79.73;98674.47;1803166;79;20219;-80
2021/01/30 09:26:19;;;;;;;;;;;;;;;-3.84;79.85;98662.20;1814731;79;20282;-82
2021/01/30 09:28:47;;;;;;;;;;;;;;;-3.81;79.98;98654.77;1816302;79;20389;-82
2021/01/30 09:31:16;;;;;;;;;;;;;;;-3.78;80.05;98657.19;1787404;79;22073;-83
2021/01/30 09:34:05;;;;;;;;;;;;;;;-3.73;80.17;98661.69;1810877;79;20272;-81
2021/01/30 09:36:36;;;;;;;;;;;;;;;-3.70;80.26;98658.95;1812864;77;20259;-82
2021/01/30 09:39:06;;;;;;;;;;;;;;;-3.64;80.34;98659.11;1804270;79;20234;-83
2021/01/30 09:41:42;;;;;;;;;;;;;;;-3.59;80.43;98650.67;1781530;79;20222;-80
2021/01/30 09:44:22;;;;;;;;;;;;;;;-3.56;80.52;98635.89;1798988;79;21887;-83
2021/01/30 09:46:54;;;;;;;;;;;;;;;-3.51;80.56;98633.90;1791293;78;20491;-83
2021/01/30 09:49:34;;;;;;;;;;;;;;;-3.44;80.66;98621.99;1798976;77;20232;-86
2021/01/30 09:52:05;;;;;;;;;;;;;;;-3.38;80.75;98610.88;1795022;79;20246;-82
2021/01/30 09:54:33;;;;;;;;;;;;;;;-3.31;80.82;98607.54;1795159;77;20275;-86
2021/01/30 09:57:06;;;;;;;;;;;;;;;-3.30;80.88;98612.62;1801252;79;22127;-83
2021/01/30 09:59:33;;;;;;;;;;;;;;;-3.27;80.93;98611.19;1794805;79;20282;-84
2021/01/30 10:02:19;;;;;;;;;;;;;;;-3.22;80.95;98609.65;1793405;78;20221;-79
2021/01/30 10:04:48;;;;;;;;;;;;;;;-3.18;80.97;98600.84;1789340;79;21146;-76
2021/01/30 10:07:17;;;;;;;;;;;;;;;-3.17;80.92;98594.31;1791937;79;20266;-81
2021/01/30 10:09:46;;;;;;;;;;;;;;;-3.19;80.88;98588.83;1780036;79;22956;-78
2021/01/30 10:12:18;;;;;;;;;;;;;;;-3.20;80.87;98585.41;1788126;79;20284;-81
2021/01/30 10:14:51;;;;;;;;;;;;;;;-3.22;80.87;98576.08;1803135;79;20227;-80
2021/01/30 10:17:24;;;;;;;;;;;;;;;-3.21;80.93;98572.58;1797562;79;20232;-81
2021/01/30 10:19:57;;;;;;;;;;;;;;;-3.21;80.96;98559.67;1787973;77;20225;-76
2021/01/30 10:22:35;;;;;;;;;;;;;;;-3.18;81.02;98550.50;1765346;80;22057;-77
2021/01/30 10:25:08;;;;;;;;;;;;;;;-3.17;81.07;98546.54;1795619;79;20271;-76
2021/01/30 10:27:35;;;;;;;;;;;;;;;-3.17;81.11;98550.41;1794456;79;20507;-76
2021/01/30 10:30:05;;;;;;;;;;;;;;;-3.13;81.18;98542.03;1807132;79;20256;-74
2021/01/30 10:32:47;;;;;;;;;;;;;;;-3.08;81.25;98547.80;1747232;79;20272;-75
2021/01/30 10:35:29;;;;;;;;;;;;;;;-3.06;81.27;98548.55;1799961;79;22054;-72
2021/01/30 10:38:03;;;;;;;;;;;;;;;-3.02;81.32;98533.25;1803990;79;20707;-75
2021/01/30 10:40:36;;;;;;;;;;;;;;;-3.00;81.34;98526.25;1809967;79;20227;-74
2021/01/30 10:43:24;;;;;;;;;;;;;;;-2.94;81.42;98523.81;1805461;77;20280;-73
2021/01/30 10:45:57;;;;;;;;;;;;;;;-2.88;81.46;98517.03;1820609;76;20333;-72
2021/01/30 10:48:28;;;;;;;;;;;;;;;-2.81;81.52;98511.88;1826427;78;21903;-74
2021/01/30 10:51:08;;;;;;;;;;;;;;;-2.73;81.52;98508.88;1826935;77;20408;-75
2021/01/30 10:53:40;;;;;;;;;;;;;;;-2.70;81.47;98504.83;1816771;78;20223;-71
2021/01/30 10:56:23;;;;;;;;;;;;;;;-2.68;81.43;98499.14;1810703;78;20252;-70
2021/01/30 10:58:51;;;;;;;;;;;;;;;-2.68;81.45;98499.97;1811024;78;20265;-72
2021/01/30 11:01:25;;;;;;;;;;;;;;;-2.66;81.50;98490.38;1808717;78;22780;-74
2021/01/30 11:03:55;;;;;;;;;;;;;;;-2.67;81.53;98482.71;1813068;78;21117;-79
2021/01/30 11:06:36;;;;;;;;;;;;;;;-2.67;81.58;98478.84;1807174;78;20234;-75
2021/01/30 11:09:13;;;;;;;;;;;;;;;-2.65;81.68;98464.91;1818067;78;20307;-80
2021/01/30 11:11:41;;;;;;;;;;;;;;;-2.63;81.75;98473.39;1811582;78;20566;-72
2021/01/30 11:14:27;;;;;;;;;;;;;;;-2.61;81.87;98465.55;1805596;78;21958;-72
2021/01/30 11:16:55;;;;;;;;;;;;;;;-2.58;81.91;98459.40;1809817;78;20436;-71
2021/01/30 11:19:30;;;;;;;;;;;;;;;-2.56;81.97;98466.14;1805646;78;20282;-72
2021/01/30 11:22:05;;;;;;;;;;;;;;;-2.56;82.01;98455.80;1819248;78;20271;-77
2021/01/30 11:24:46;;;;;;;;;;;;;;;-2.55;82.07;98459.22;1810422;78;20274;-71
2021/01/30 11:27:13;;;;;;;;;;;;;;;-2.54;82.11;98451.38;1807180;78;23755;-75
2021/01/30 11:29:42;;;;;;;;;;;;;;;-2.54;82.16;98444.91;1814071;78;20290;-75
2021/01/30 11:32:19;;;;;;;;;;;;;;;-2.51;82.25;98440.02;1814778;78;20252;-78
2021/01/30 11:34:47;;;;;;;;;;;;;;;-2.49;82.30;98427.86;1817555;78;20257;-72
2021/01/30 11:37:14;;;;;;;;;;;;;;;-2.47;82.38;98411.80;1819069;78;20245;-72
2021/01/30 11:39:43;;;;;;;;;;;;;;;-2.44;82.47;98416.78;1819516;78;22063;-73
2021/01/30 11:42:12;;;;;;;;;;;;;;;-2.42;82.50;98415.77;1818366;78;20266;-74
2021/01/30 11:44:40;;;;;;;;;;;;;;;-2.39;82.56;98419.95;1805454;78;20277;-71
2021/01/30 11:47:07;;;;;;;;;;;;;;;-2.37;82.64;98413.76;1811490;78;20304;-71
2021/01/30 11:49:35;;;;;;;;;;;;;;;-2.33;82.67;98411.81;1798299;79;20238;-70
2021/01/30 11:52:02;;;;;;;;;;;;;;;-2.29;82.73;98400.85;1794834;79;22052;-72
2021/01/30 11:54:31;;;;;;;;;;;;;;;-2.25;82.81;98403.16;1806904;79;20731;-71
2021/01/30 11:56:58;;;;;;;;;;;;;;;-2.21;82.84;98402.07;1789562;79;20218;-72
2021/01/30 11:59:25;;;;;;;;;;;;;;;-2.17;82.93;98393.66;1786296;79;20299;-71
2021/01/30 12:01:53;;;;;;;;;;;;;;;-2.13;82.96;98400.30;1784252;79;20262;-70
2021/01/30 12:04:20;;;;;;;;;;;;;;;-2.10;82.99;98394.97;1754885;79;22345;-72
2021/01/30 12:06:47;;;;;;;;;;;;;;;-2.07;83.04;98392.19;1795502;79;20370;-71
2021/01/30 12:09:16;;;;;;;;;;;;;;;-2.05;83.08;98387.75;1796235;79;20232;-72
2021/01/30 12:11:44;;;;;;;;;;;;;;;-2.03;83.12;98386.75;1803083;77;20971;-72
2021/01/30 12:14:11;;;;;;;;;;;;;;;-2.00;83.15;98384.44;1791630;79;20412;-71
2021/01/30 12:16:39;;;;;;;;;;;;;;;-1.98;83.20;98378.70;1801473;79;21883;-72
2021/01/30 12:19:07;;;;;;;;;;;;;;;-1.95;83.24;98375.92;1804446;79;20351;-70
2021/01/30 12:21:34;;;;;;;;;;;;;;;-1.93;83.26;98375.39;1742341;81;20400;-71
2021/01/30 12:24:02;;;;;;;;;;;;;;;-1.90;83.30;98364.84;1752556;80;20240;-71
2021/01/30 12:26:31;;;;;;;;;;;;;;;-1.87;83.33;98362.53;1753645;80;20277;-71
2021/01/30 12:28:58;;;;;;;;;;;;;;;-1.83;83.37;98367.44;1756332;79;21898;-70
2021/01/30 12:31:26;;;;;;;;;;;;;;;-1.79;83.42;98367.61;1771006;81;20385;-72
2021/01/30 12:33:55;;;;;;;;;;;;;;;-1.75;83.47;98357.89;1748132;81;20271;-71
2021/01/30 12:36:22;;;;;;;;;;;;;;;-1.71;83.52;98359.84;1747721;81;20784;-72
2021/01/30 12:38:49;;;;;;;;;;;;;;;-1.68;83.54;98365.66;1758729;81;20300;-72
2021/01/30 12:41:18;;;;;;;;;;;;;;;-1.64;83.59;98354.20;1767448;81;21437;-71
2021/01/30 12:43:45;;;;;;;;;;;;;;;-1.59;83.63;98352.61;1755581;81;20386;-72
2021/01/30 12:46:14;;;;;;;;;;;;;;;-1.55;83.68;98348.42;1734381;79;20263;-73
2021/01/30 12:48:41;;;;;;;;;;;;;;;-1.51;83.71;98346.50;1775533;80;20263;-72
2021/01/30 12:51:10;;;;;;;;;;;;;;;-1.48;83.74;98344.53;1775505;79;20279;-72
2021/01/30 12:53:37;;;;;;;;;;;;;;;-1.45;83.82;98335.73;1761644;80;21958;-71
2021/01/30 12:56:05;;;;;;;;;;;;;;;-1.41;83.92;98334.63;1765187;80;20303;-70
2021/01/30 12:58:34;;;;;;;;;;;;;;;-1.40;83.97;98329.81;1766370;80;20827;-73
2021/01/30 13:01:03;;;;;;;;;;;;;;;-1.35;84.08;98328.22;1766003;80;20378;-78
2021/01/30 13:03:30;;;;;;;;;;;;;;;-1.31;84.13;98323.23;1746654;80;20222;-77
2021/01/30 13:05:58;;;;;;;;;;;;;;;-1.30;84.17;98318.41;1758437;80;22913;-79
2021/01/30 13:08:25;;;;;;;;;;;;;;;-1.28;84.23;98312.20;1745716;80;20379;-76
2021/01/30 13:10:54;;;;;;;;;;;;;;;-1.26;84.27;98314.69;1752136;80;20232;-73
2021/01/30 13:13:22;;;;;;;;;;;;;;;-1.25;84.31;98313.31;1730208;82;20486;-75
2021/01/30 13:15:49;;;;;;;;;;;;;;;-1.24;84.37;98306.38;1764874;80;20244;-76
2021/01/30 13:18:17;;;;;;;;;;;;;;;-1.23;84.40;98311.45;1762273;80;22083;-78